Cheektowaga, New York
Current Conditions -  °F | °C
As of 3:54 AM on Thursday 23 Oct 2014 (Local Time) from KBUF Reporting Station
Clear Clear  
Wind Chill: 38°   Ceiling: Unl
Heat Index: 43°   Visibility: 10mi
Dew Point: 40°   Wind: 9mph
Humidity: 89%   Direction: 330°NNW
Pressure: 30.14"   Gusts: NA
Location:  42.9°N, 78.74°W
Report Text: KBUF 230754Z 33008KT 10SM CLR 06/04 A3014 RMK AO2 SLP212 T00610044
Loading
Personal Weather Stations






























Interactive Weather Map
Tropical Storm Tracking
New forecast layout! Learn more

10-Day Weather Forecast

Advertisements
Track Severe Weather on mobile